Time;durP1;ratioP1;P1;durP2;ratioP2;P2;SDS_P1;SDS_P2;PMS_P1;PMS_P2;Temp;Humidity;BMP_temperature;BMP_pressure;BME280_temperature;BME280_humidity;BME280_pressure;Samples;Min_cycle;Max_cycle;Signal;HPM_P1;HPM_P2
2023/08/05 00:01:33;;;;;;;;;;;;;;;;;;5049272;28;20353;-61
2023/08/05 00:03:59;;;;;;;;;;;;;;;;;;5063833;28;19920;-61
2023/08/05 00:06:25;;;;;;;;;;;;;;;;;;5051944;28;20390;-61
2023/08/05 00:08:51;;;;;;;;;;;;;;;;;;5052480;28;19931;-61
2023/08/05 00:11:16;;;;;;;;;;;;;;;;;;5067671;28;20907;-61
2023/08/05 00:13:42;;;;;;;;;;;;;;;;;;5033116;28;20012;-61
2023/08/05 00:16:08;;;;;;;;;;;;;;;;;;5067099;28;20361;-61
2023/08/05 00:18:34;;;;;;;;;;;;;;;;;;5054036;28;19920;-61
2023/08/05 00:21:00;;;;;;;;;;;;;;;;;;5051295;28;19962;-61
2023/08/05 00:23:26;;;;;;;;;;;;;;;;;;5070060;28;19921;-61
2023/08/05 00:25:52;;;;;;;;;;;;;;;;;;5036205;28;19925;-61
2023/08/05 00:28:18;;;;;;;;;;;;;;;;;;5070049;28;19924;-61
2023/08/05 00:30:44;;;;;;;;;;;;;;;;;;5051519;28;19974;-61
2023/08/05 00:33:09;;;;;;;;;;;;;;;;;;5070819;28;19925;-61
2023/08/05 00:35:35;;;;;;;;;;;;;;;;;;5052654;28;19924;-61
2023/08/05 00:38:01;;;;;;;;;;;;;;;;;;5051851;28;19973;-61
2023/08/05 00:40:27;;;;;;;;;;;;;;;;;;5069147;28;19932;-61
2023/08/05 00:42:53;;;;;;;;;;;;;;;;;;5070398;28;20282;-61
2023/08/05 00:45:19;;;;;;;;;;;;;;;;;;5070722;28;19924;-61
2023/08/05 00:47:45;;;;;;;;;;;;;;;;;;5070032;28;19924;-61
2023/08/05 00:50:11;;;;;;;;;;;;;;;;;;5071079;28;20452;-61
2023/08/05 00:52:37;;;;;;;;;;;;;;;;;;5070716;28;19969;-61
2023/08/05 00:55:02;;;;;;;;;;;;;;;;;;5069212;28;19931;-61
2023/08/05 00:57:28;;;;;;;;;;;;;;;;;;5062493;28;20279;-61
2023/08/05 00:59:54;;;;;;;;;;;;;;;;;;5069519;28;19928;-61
2023/08/05 01:02:20;;;;;;;;;;;;;;;;;;5069450;28;19924;-61
2023/08/05 01:04:46;;;;;;;;;;;;;;;;;;5069254;28;19936;-61
2023/08/05 01:07:12;;;;;;;;;;;;;;;;;;5052486;28;19924;-61
2023/08/05 01:09:38;;;;;;;;;;;;;;;;;;5069242;28;19927;-61
2023/08/05 01:12:04;;;;;;;;;;;;;;;;;;5049638;28;19950;-61
2023/08/05 01:14:31;;;;;;;;;;;;;;;;;;5068668;28;19931;-61
2023/08/05 01:16:57;;;;;;;;;;;;;;;;;;5035093;28;19920;-61
2023/08/05 01:19:23;;;;;;;;;;;;;;;;;;5052531;28;19927;-61
2023/08/05 01:21:49;;;;;;;;;;;;;;;;;;5049804;28;19924;-61
2023/08/05 01:24:15;;;;;;;;;;;;;;;;;;5069399;28;19981;-61
2023/08/05 01:26:41;;;;;;;;;;;;;;;;;;5070681;28;19928;-61
2023/08/05 01:29:07;;;;;;;;;;;;;;;;;;5069999;28;19989;-61
2023/08/05 01:31:33;;;;;;;;;;;;;;;;;;5070822;28;19973;-61
2023/08/05 01:33:59;;;;;;;;;;;;;;;;;;5050715;28;19931;-61
2023/08/05 01:36:25;;;;;;;;;;;;;;;;;;5069408;28;19959;-61
2023/08/05 01:38:51;;;;;;;;;;;;;;;;;;5068773;28;19928;-61
2023/08/05 01:41:16;;;;;;;;;;;;;;;;;;5069219;28;20547;-61
2023/08/05 01:43:42;;;;;;;;;;;;;;;;;;5070498;28;19920;-61
2023/08/05 01:46:08;;;;;;;;;;;;;;;;;;5065930;28;19943;-61
2023/08/05 01:48:34;;;;;;;;;;;;;;;;;;5068605;28;19963;-61
2023/08/05 01:51:03;;;;;;;;;;;;;;;;;;5049574;28;19927;-61
2023/08/05 01:53:29;;;;;;;;;;;;;;;;;;5068382;28;20291;-61
2023/08/05 01:55:55;;;;;;;;;;;;;;;;;;5050824;28;19920;-61
2023/08/05 01:58:21;;;;;;;;;;;;;;;;;;5069207;28;20015;-61
2023/08/05 02:00:47;;;;;;;;;;;;;;;;;;5069679;28;19963;-61
2023/08/05 02:03:13;;;;;;;;;;;;;;;;;;5072456;28;20013;-61
2023/08/05 02:05:38;;;;;;;;;;;;;;;;;;5071136;28;19920;-61
2023/08/05 02:08:05;;;;;;;;;;;;;;;;;;5074879;28;19924;-61
2023/08/05 02:10:31;;;;;;;;;;;;;;;;;;5055374;28;19924;-61
2023/08/05 02:12:57;;;;;;;;;;;;;;;;;;5070172;28;19971;-62
2023/08/05 02:15:22;;;;;;;;;;;;;;;;;;5036379;28;19928;-61
2023/08/05 02:17:48;;;;;;;;;;;;;;;;;;5074598;28;20374;-61
2023/08/05 02:20:14;;;;;;;;;;;;;;;;;;5072577;28;19968;-61
2023/08/05 02:22:40;;;;;;;;;;;;;;;;;;5072730;28;20167;-61
2023/08/05 02:25:06;;;;;;;;;;;;;;;;;;5071352;28;20362;-61
2023/08/05 02:27:32;;;;;;;;;;;;;;;;;;5073617;28;19924;-61
2023/08/05 02:29:58;;;;;;;;;;;;;;;;;;5068486;28;20019;-61
2023/08/05 02:32:24;;;;;;;;;;;;;;;;;;5070368;28;19951;-61
2023/08/05 02:34:50;;;;;;;;;;;;;;;;;;5074270;28;19946;-61
2023/08/05 02:37:16;;;;;;;;;;;;;;;;;;5073294;28;19924;-61
2023/08/05 02:39:41;;;;;;;;;;;;;;;;;;5053443;28;20497;-61
2023/08/05 02:42:07;;;;;;;;;;;;;;;;;;5072750;28;19920;-61
2023/08/05 02:44:33;;;;;;;;;;;;;;;;;;5073289;28;19920;-61
2023/08/05 02:46:59;;;;;;;;;;;;;;;;;;5053258;28;20019;-61
2023/08/05 02:49:25;;;;;;;;;;;;;;;;;;5073027;28;19921;-61
2023/08/05 02:51:51;;;;;;;;;;;;;;;;;;5053884;28;20414;-61
2023/08/05 02:54:17;;;;;;;;;;;;;;;;;;5071935;28;19927;-61
2023/08/05 02:56:43;;;;;;;;;;;;;;;;;;5072770;28;20361;-61
2023/08/05 02:59:09;;;;;;;;;;;;;;;;;;5050441;28;20378;-61
2023/08/05 03:01:37;;;;;;;;;;;;;;;;;;5073008;28;19921;-61
2023/08/05 03:04:03;;;;;;;;;;;;;;;;;;5070325;28;20062;-61
2023/08/05 03:06:29;;;;;;;;;;;;;;;;;;5072484;28;20003;-61
2023/08/05 03:08:55;;;;;;;;;;;;;;;;;;5072537;28;20638;-61
2023/08/05 03:11:21;;;;;;;;;;;;;;;;;;5053731;28;19930;-61
2023/08/05 03:13:47;;;;;;;;;;;;;;;;;;5068362;28;19973;-61
2023/08/05 03:16:13;;;;;;;;;;;;;;;;;;5070857;28;19924;-61
2023/08/05 03:18:39;;;;;;;;;;;;;;;;;;5073666;28;19931;-61
2023/08/05 03:21:04;;;;;;;;;;;;;;;;;;5071108;28;20328;-61
2023/08/05 03:23:30;;;;;;;;;;;;;;;;;;5051580;28;19966;-61
2023/08/05 03:25:56;;;;;;;;;;;;;;;;;;5066846;28;19924;-61
2023/08/05 03:28:22;;;;;;;;;;;;;;;;;;5053158;28;19931;-61
2023/08/05 03:30:48;;;;;;;;;;;;;;;;;;5066044;28;19920;-61
2023/08/05 03:33:14;;;;;;;;;;;;;;;;;;5064990;28;19977;-61
2023/08/05 03:35:40;;;;;;;;;;;;;;;;;;5051571;28;20002;-61
2023/08/05 03:38:06;;;;;;;;;;;;;;;;;;5070622;28;19925;-61
2023/08/05 03:40:32;;;;;;;;;;;;;;;;;;5070747;28;20276;-61
2023/08/05 03:42:57;;;;;;;;;;;;;;;;;;5070522;28;20015;-61
2023/08/05 03:45:23;;;;;;;;;;;;;;;;;;5070568;28;19928;-61
2023/08/05 03:47:51;;;;;;;;;;;;;;;;;;5070557;28;19928;-61
2023/08/05 03:50:17;;;;;;;;;;;;;;;;;;5062674;28;19925;-61
2023/08/05 03:52:43;;;;;;;;;;;;;;;;;;5050864;28;20027;-61
2023/08/05 03:55:09;;;;;;;;;;;;;;;;;;5071506;28;19921;-61
2023/08/05 03:57:35;;;;;;;;;;;;;;;;;;5068507;28;19921;-61
2023/08/05 04:00:01;;;;;;;;;;;;;;;;;;5069866;28;20400;-61
2023/08/05 04:02:27;;;;;;;;;;;;;;;;;;5064797;28;19928;-61
2023/08/05 04:04:53;;;;;;;;;;;;;;;;;;5069336;28;19973;-61
2023/08/05 04:07:19;;;;;;;;;;;;;;;;;;5067484;28;19921;-61
2023/08/05 04:09:45;;;;;;;;;;;;;;;;;;5069810;28;19924;-61
2023/08/05 04:12:13;;;;;;;;;;;;;;;;;;5068514;28;19978;-61
2023/08/05 04:14:39;;;;;;;;;;;;;;;;;;5065506;28;19928;-61
2023/08/05 04:17:05;;;;;;;;;;;;;;;;;;5065483;28;20416;-61
2023/08/05 04:19:32;;;;;;;;;;;;;;;;;;5071423;28;19963;-61
2023/08/05 04:22:00;;;;;;;;;;;;;;;;;;5070035;28;20008;-61
2023/08/05 04:24:28;;;;;;;;;;;;;;;;;;5068316;28;19921;-61
2023/08/05 04:26:54;;;;;;;;;;;;;;;;;;5070892;28;19967;-61
2023/08/05 04:29:22;;;;;;;;;;;;;;;;;;5050791;28;19964;-61
2023/08/05 04:31:48;;;;;;;;;;;;;;;;;;5071026;28;20329;-61
2023/08/05 04:34:14;;;;;;;;;;;;;;;;;;5071892;28;19977;-61
2023/08/05 04:36:40;;;;;;;;;;;;;;;;;;5070155;28;20282;-61
2023/08/05 04:39:06;;;;;;;;;;;;;;;;;;5070691;28;19931;-61
2023/08/05 04:41:32;;;;;;;;;;;;;;;;;;5067683;28;19920;-61
2023/08/05 04:43:58;;;;;;;;;;;;;;;;;;5052806;28;19924;-61
2023/08/05 04:46:24;;;;;;;;;;;;;;;;;;5051791;28;19920;-61
2023/08/05 04:48:50;;;;;;;;;;;;;;;;;;5070859;28;19920;-61
2023/08/05 04:51:16;;;;;;;;;;;;;;;;;;5051396;28;19975;-61
2023/08/05 04:53:42;;;;;;;;;;;;;;;;;;5052226;28;19950;-61
2023/08/05 04:56:07;;;;;;;;;;;;;;;;;;5069987;28;19974;-61
2023/08/05 04:58:33;;;;;;;;;;;;;;;;;;5052803;28;19952;-61
2023/08/05 05:01:00;;;;;;;;;;;;;;;;;;5070344;28;19921;-61
2023/08/05 05:03:25;;;;;;;;;;;;;;;;;;5068281;28;19924;-61
2023/08/05 05:05:51;;;;;;;;;;;;;;;;;;5070440;28;19920;-61
2023/08/05 05:08:17;;;;;;;;;;;;;;;;;;5071302;28;19927;-61
2023/08/05 05:10:43;;;;;;;;;;;;;;;;;;5051396;28;20021;-61
2023/08/05 05:13:09;;;;;;;;;;;;;;;;;;5067681;28;19928;-61
2023/08/05 05:15:35;;;;;;;;;;;;;;;;;;5066192;28;19940;-61
2023/08/05 05:18:01;;;;;;;;;;;;;;;;;;5049428;28;20370;-61
2023/08/05 05:20:27;;;;;;;;;;;;;;;;;;5050122;28;19998;-61
2023/08/05 05:22:53;;;;;;;;;;;;;;;;;;5047520;28;20209;-61
2023/08/05 05:25:18;;;;;;;;;;;;;;;;;;5049663;28;19927;-61
2023/08/05 05:27:44;;;;;;;;;;;;;;;;;;5068213;28;19920;-61
2023/08/05 05:30:10;;;;;;;;;;;;;;;;;;5062814;28;19926;-61
2023/08/05 05:32:36;;;;;;;;;;;;;;;;;;5067090;28;20368;-61
2023/08/05 05:35:02;;;;;;;;;;;;;;;;;;5071618;28;19920;-61
2023/08/05 05:37:28;;;;;;;;;;;;;;;;;;5071973;28;19927;-61
2023/08/05 05:39:54;;;;;;;;;;;;;;;;;;5070724;28;20344;-62
2023/08/05 05:42:20;;;;;;;;;;;;;;;;;;5073242;28;19946;-61
2023/08/05 05:44:52;;;;;;;;;;;;;;;;;;5072708;28;19928;-61
2023/08/05 05:47:18;;;;;;;;;;;;;;;;;;5052957;28;19967;-61
2023/08/05 05:49:44;;;;;;;;;;;;;;;;;;5073166;28;19920;-61
2023/08/05 05:52:13;;;;;;;;;;;;;;;;;;5078808;23;20300;-66
2023/08/05 05:54:39;;;;;;;;;;;;;;;;;;5072432;28;19930;-67
2023/08/05 05:57:04;;;;;;;;;;;;;;;;;;5072969;28;20019;-67
2023/08/05 05:59:30;;;;;;;;;;;;;;;;;;5063831;28;20607;-66
2023/08/05 06:01:56;;;;;;;;;;;;;;;;;;5061539;28;19925;-66
2023/08/05 06:04:26;;;;;;;;;;;;;;;;;;5069995;28;19929;-66
2023/08/05 06:06:53;;;;;;;;;;;;;;;;;;5073783;28;19932;-67
2023/08/05 06:09:19;;;;;;;;;;;;;;;;;;5071695;28;19924;-66
2023/08/05 06:11:45;;;;;;;;;;;;;;;;;;5071274;28;19928;-66
2023/08/05 06:14:11;;;;;;;;;;;;;;;;;;5070093;28;19931;-66
2023/08/05 06:16:37;;;;;;;;;;;;;;;;;;5072167;28;19920;-66
2023/08/05 06:19:03;;;;;;;;;;;;;;;;;;5072901;28;19920;-66
2023/08/05 06:21:29;;;;;;;;;;;;;;;;;;5074497;28;20020;-67
2023/08/05 06:23:55;;;;;;;;;;;;;;;;;;5073203;28;20408;-67
2023/08/05 06:26:21;;;;;;;;;;;;;;;;;;5071814;28;19928;-67
2023/08/05 06:28:47;;;;;;;;;;;;;;;;;;5068311;28;19927;-67
2023/08/05 06:31:13;;;;;;;;;;;;;;;;;;5073164;28;19948;-67
2023/08/05 06:33:39;;;;;;;;;;;;;;;;;;5074565;28;20298;-67
2023/08/05 06:36:05;;;;;;;;;;;;;;;;;;5073347;28;19927;-67
2023/08/05 06:38:31;;;;;;;;;;;;;;;;;;5057163;28;19925;-67
2023/08/05 06:40:56;;;;;;;;;;;;;;;;;;5070707;28;19954;-67
2023/08/05 06:43:23;;;;;;;;;;;;;;;;;;5073566;28;19924;-67
2023/08/05 06:45:49;;;;;;;;;;;;;;;;;;5069729;28;19920;-67
2023/08/05 06:48:15;;;;;;;;;;;;;;;;;;5072335;28;19930;-67
2023/08/05 06:50:41;;;;;;;;;;;;;;;;;;5074061;28;19924;-67
2023/08/05 06:53:07;;;;;;;;;;;;;;;;;;5062793;28;20410;-68
2023/08/05 06:55:33;;;;;;;;;;;;;;;;;;5065823;28;20301;-67
2023/08/05 06:57:59;;;;;;;;;;;;;;;;;;5054283;28;20022;-67
2023/08/05 07:00:25;;;;;;;;;;;;;;;;;;5070445;28;19931;-67
2023/08/05 07:02:51;;;;;;;;;;;;;;;;;;5070131;28;19977;-67
2023/08/05 07:05:17;;;;;;;;;;;;;;;;;;5067735;28;19924;-67
2023/08/05 07:07:43;;;;;;;;;;;;;;;;;;5072639;28;19924;-67
2023/08/05 07:10:11;;;;;;;;;;;;;;;;;;5070515;28;19931;-67
2023/08/05 07:12:37;;;;;;;;;;;;;;;;;;5068617;28;19981;-67
2023/08/05 07:15:03;;;;;;;;;;;;;;;;;;5072056;28;19920;-67
2023/08/05 07:17:29;;;;;;;;;;;;;;;;;;5032152;28;19924;-67
2023/08/05 07:19:55;;;;;;;;;;;;;;;;;;5064442;28;19966;-67
2023/08/05 07:22:21;;;;;;;;;;;;;;;;;;5021680;28;19924;-67
2023/08/05 07:24:47;;;;;;;;;;;;;;;;;;5049782;28;20780;-67
2023/08/05 07:27:13;;;;;;;;;;;;;;;;;;5066740;28;20536;-67
2023/08/05 07:29:39;;;;;;;;;;;;;;;;;;5036129;28;19927;-67
2023/08/05 07:32:05;;;;;;;;;;;;;;;;;;5072496;28;19926;-67
2023/08/05 07:34:32;;;;;;;;;;;;;;;;;;5071126;28;19928;-67
2023/08/05 07:36:59;;;;;;;;;;;;;;;;;;5071185;28;19920;-67
2023/08/05 07:39:28;;;;;;;;;;;;;;;;;;5072463;28;19924;-70
2023/08/05 07:41:54;;;;;;;;;;;;;;;;;;5053930;28;20005;-68
2023/08/05 07:44:19;;;;;;;;;;;;;;;;;;5050131;28;19963;-67
2023/08/05 07:46:47;;;;;;;;;;;;;;;;;;5044946;28;19924;-67
2023/08/05 07:49:13;;;;;;;;;;;;;;;;;;5066661;28;19929;-67
2023/08/05 07:51:45;;;;;;;;;;;;;;;;;;5056443;28;19928;-66
2023/08/05 07:54:11;;;;;;;;;;;;;;;;;;5065747;28;19928;-67
2023/08/05 07:56:39;;;;;;;;;;;;;;;;;;5066824;28;19920;-67
2023/08/05 07:59:05;;;;;;;;;;;;;;;;;;5065216;28;19964;-67
2023/08/05 08:01:30;;;;;;;;;;;;;;;;;;5062847;28;19951;-67
2023/08/05 08:04:01;;;;;;;;;;;;;;;;;;5068931;28;20345;-67
2023/08/05 08:06:27;;;;;;;;;;;;;;;;;;5066405;28;19924;-67
2023/08/05 08:08:53;;;;;;;;;;;;;;;;;;5069314;28;20391;-67
2023/08/05 08:11:19;;;;;;;;;;;;;;;;;;5066114;28;19924;-67
2023/08/05 08:13:45;;;;;;;;;;;;;;;;;;5067192;28;19924;-67
2023/08/05 08:16:11;;;;;;;;;;;;;;;;;;5068788;28;19996;-68
2023/08/05 08:18:37;;;;;;;;;;;;;;;;;;5067371;28;19921;-67
2023/08/05 08:21:04;;;;;;;;;;;;;;;;;;5062882;28;19924;-66
2023/08/05 08:23:29;;;;;;;;;;;;;;;;;;5068576;28;19920;-65
2023/08/05 08:25:55;;;;;;;;;;;;;;;;;;5061416;28;20443;-66
2023/08/05 08:28:21;;;;;;;;;;;;;;;;;;5070564;28;20332;-66
2023/08/05 08:30:47;;;;;;;;;;;;;;;;;;5072056;28;19971;-66
2023/08/05 08:33:13;;;;;;;;;;;;;;;;;;5071747;28;19924;-66
2023/08/05 08:35:39;;;;;;;;;;;;;;;;;;5035284;28;20018;-66
2023/08/05 08:38:05;;;;;;;;;;;;;;;;;;5072093;28;19930;-66
2023/08/05 08:40:32;;;;;;;;;;;;;;;;;;5060209;28;19929;-66
2023/08/05 08:42:58;;;;;;;;;;;;;;;;;;5062342;28;19924;-66
2023/08/05 08:45:24;;;;;;;;;;;;;;;;;;5053904;28;20361;-66
2023/08/05 08:47:50;;;;;;;;;;;;;;;;;;5072898;28;19921;-66
2023/08/05 08:50:16;;;;;;;;;;;;;;;;;;5071924;28;19924;-66
2023/08/05 08:52:42;;;;;;;;;;;;;;;;;;5070338;28;19984;-66
2023/08/05 08:55:08;;;;;;;;;;;;;;;;;;5071801;28;20033;-66
2023/08/05 08:57:34;;;;;;;;;;;;;;;;;;5071873;28;19920;-66
2023/08/05 09:00:00;;;;;;;;;;;;;;;;;;5071678;28;20698;-66
2023/08/05 09:02:26;;;;;;;;;;;;;;;;;;5071523;28;19920;-66
2023/08/05 09:04:53;;;;;;;;;;;;;;;;;;5069164;28;19925;-66
2023/08/05 09:07:18;;;;;;;;;;;;;;;;;;5048998;28;19931;-66
2023/08/05 09:09:44;;;;;;;;;;;;;;;;;;5053283;28;20358;-66
2023/08/05 09:12:10;;;;;;;;;;;;;;;;;;5071557;28;19924;-66
2023/08/05 09:14:36;;;;;;;;;;;;;;;;;;5070284;28;20367;-66
2023/08/05 09:17:02;;;;;;;;;;;;;;;;;;5071473;28;19928;-66
2023/08/05 09:19:28;;;;;;;;;;;;;;;;;;5063755;28;19947;-66
2023/08/05 09:21:54;;;;;;;;;;;;;;;;;;5069639;28;19981;-66
2023/08/05 09:24:20;;;;;;;;;;;;;;;;;;5071586;28;20358;-66
2023/08/05 09:26:46;;;;;;;;;;;;;;;;;;5071377;28;19924;-66
2023/08/05 09:29:11;;;;;;;;;;;;;;;;;;5069052;28;19927;-66
2023/08/05 09:31:37;;;;;;;;;;;;;;;;;;5068741;28;19928;-66
2023/08/05 09:34:03;;;;;;;;;;;;;;;;;;5053804;28;19952;-66
2023/08/05 09:36:29;;;;;;;;;;;;;;;;;;5064206;28;20410;-66
2023/08/05 09:38:55;;;;;;;;;;;;;;;;;;5067805;28;20011;-66
2023/08/05 09:41:21;;;;;;;;;;;;;;;;;;5070933;28;20304;-66
2023/08/05 09:43:49;;;;;;;;;;;;;;;;;;5053193;28;19973;-66
2023/08/05 09:46:15;;;;;;;;;;;;;;;;;;5070346;28;19966;-66
2023/08/05 09:48:42;;;;;;;;;;;;;;;;;;5066762;28;19928;-66
2023/08/05 09:51:08;;;;;;;;;;;;;;;;;;5059154;28;19932;-67
2023/08/05 09:53:34;;;;;;;;;;;;;;;;;;5062448;28;20015;-68
2023/08/05 09:56:00;;;;;;;;;;;;;;;;;;5067912;28;20046;-67
2023/08/05 09:58:26;;;;;;;;;;;;;;;;;;5063861;28;19985;-67
2023/08/05 10:00:52;;;;;;;;;;;;;;;;;;5064925;28;19971;-67
2023/08/05 10:03:18;;;;;;;;;;;;;;;;;;5066272;28;19960;-67
2023/08/05 10:05:44;;;;;;;;;;;;;;;;;;5064322;28;20496;-67
2023/08/05 10:08:10;;;;;;;;;;;;;;;;;;5068993;28;19921;-66
2023/08/05 10:10:37;;;;;;;;;;;;;;;;;;5064867;28;19974;-67
2023/08/05 10:13:04;;;;;;;;;;;;;;;;;;5063353;28;19975;-67
2023/08/05 10:15:30;;;;;;;;;;;;;;;;;;5062167;28;19964;-67
2023/08/05 10:17:56;;;;;;;;;;;;;;;;;;5063741;28;19963;-67
2023/08/05 10:20:22;;;;;;;;;;;;;;;;;;5066669;28;19928;-67
2023/08/05 10:22:48;;;;;;;;;;;;;;;;;;5067993;28;19925;-67
2023/08/05 10:25:13;;;;;;;;;;;;;;;;;;5073281;28;19928;-66
2023/08/05 10:27:41;;;;;;;;;;;;;;;;;;5073477;28;21467;-67
2023/08/05 10:30:07;;;;;;;;;;;;;;;;;;5069052;28;20019;-67
2023/08/05 10:32:35;;;;;;;;;;;;;;;;;;5073809;28;19924;-67
2023/08/05 10:35:01;;;;;;;;;;;;;;;;;;5071294;28;20365;-67
2023/08/05 10:37:27;;;;;;;;;;;;;;;;;;5054660;28;19935;-66
2023/08/05 10:39:53;;;;;;;;;;;;;;;;;;5072759;28;19928;-67
2023/08/05 10:42:19;;;;;;;;;;;;;;;;;;5070108;28;20392;-67
2023/08/05 10:44:45;;;;;;;;;;;;;;;;;;5046810;28;19929;-67
2023/08/05 10:47:11;;;;;;;;;;;;;;;;;;5061561;28;19975;-67
2023/08/05 10:49:36;;;;;;;;;;;;;;;;;;5061561;28;19928;-67
2023/08/05 10:52:02;;;;;;;;;;;;;;;;;;5050556;28;19974;-66
2023/08/05 10:54:31;;;;;;;;;;;;;;;;;;5069254;28;19920;-67
2023/08/05 10:56:56;;;;;;;;;;;;;;;;;;5072076;28;19935;-67
2023/08/05 10:59:22;;;;;;;;;;;;;;;;;;5052246;28;19929;-66
2023/08/05 11:01:48;;;;;;;;;;;;;;;;;;5071669;28;19921;-67
2023/08/05 11:04:14;;;;;;;;;;;;;;;;;;5072024;28;19947;-66
2023/08/05 11:06:40;;;;;;;;;;;;;;;;;;5050421;28;19927;-66
2023/08/05 11:09:08;;;;;;;;;;;;;;;;;;5073680;28;19962;-67
2023/08/05 11:11:34;;;;;;;;;;;;;;;;;;5048721;28;19932;-67
2023/08/05 11:14:00;;;;;;;;;;;;;;;;;;5053117;28;19920;-67
2023/08/05 11:16:25;;;;;;;;;;;;;;;;;;5070994;28;20373;-66
2023/08/05 11:18:51;;;;;;;;;;;;;;;;;;5049711;28;19924;-67
2023/08/05 11:21:17;;;;;;;;;;;;;;;;;;5072147;28;19947;-67
2023/08/05 11:23:45;;;;;;;;;;;;;;;;;;5053352;28;19996;-67
2023/08/05 11:26:11;;;;;;;;;;;;;;;;;;5070365;28;19924;-67
2023/08/05 11:28:37;;;;;;;;;;;;;;;;;;5072098;28;20011;-68
2023/08/05 11:31:04;;;;;;;;;;;;;;;;;;5071624;28;19938;-67
2023/08/05 11:33:30;;;;;;;;;;;;;;;;;;5063213;28;20271;-67
2023/08/05 11:35:56;;;;;;;;;;;;;;;;;;5052595;28;19981;-67
2023/08/05 11:38:22;;;;;;;;;;;;;;;;;;5072293;28;19968;-67
2023/08/05 11:40:48;;;;;;;;;;;;;;;;;;5071472;28;19971;-67
2023/08/05 11:43:14;;;;;;;;;;;;;;;;;;5071346;28;20413;-67
2023/08/05 11:45:40;;;;;;;;;;;;;;;;;;5044979;28;19963;-67
2023/08/05 11:48:06;;;;;;;;;;;;;;;;;;5053320;28;20015;-68
2023/08/05 11:50:32;;;;;;;;;;;;;;;;;;5068975;28;20026;-67
2023/08/05 11:52:57;;;;;;;;;;;;;;;;;;5070013;28;19934;-67
2023/08/05 11:55:23;;;;;;;;;;;;;;;;;;5070049;28;19924;-67
2023/08/05 11:57:49;;;;;;;;;;;;;;;;;;5067272;28;19928;-68
2023/08/05 12:00:15;;;;;;;;;;;;;;;;;;5070033;28;19920;-67
2023/08/05 12:02:41;;;;;;;;;;;;;;;;;;5064477;28;19928;-67
2023/08/05 12:05:07;;;;;;;;;;;;;;;;;;5062049;28;20281;-67
2023/08/05 12:07:33;;;;;;;;;;;;;;;;;;5063937;28;20015;-67
2023/08/05 12:09:59;;;;;;;;;;;;;;;;;;5064407;28;19962;-67
2023/08/05 12:12:25;;;;;;;;;;;;;;;;;;5069246;28;19974;-67
2023/08/05 12:14:50;;;;;;;;;;;;;;;;;;5071400;28;20354;-68
2023/08/05 12:17:16;;;;;;;;;;;;;;;;;;5067357;28;19931;-67
2023/08/05 12:19:42;;;;;;;;;;;;;;;;;;5069270;28;19932;-68
2023/08/05 12:22:08;;;;;;;;;;;;;;;;;;5067396;28;19920;-68
2023/08/05 12:24:34;;;;;;;;;;;;;;;;;;5064909;28;19931;-67
2023/08/05 12:27:00;;;;;;;;;;;;;;;;;;5067072;28;19955;-67
2023/08/05 12:29:26;;;;;;;;;;;;;;;;;;5062606;28;19921;-67
2023/08/05 12:31:52;;;;;;;;;;;;;;;;;;5044408;28;20027;-67
2023/08/05 12:34:18;;;;;;;;;;;;;;;;;;5067694;28;19936;-66
2023/08/05 12:36:44;;;;;;;;;;;;;;;;;;5070335;28;19924;-67
2023/08/05 12:39:10;;;;;;;;;;;;;;;;;;5051143;28;19943;-67
2023/08/05 12:41:35;;;;;;;;;;;;;;;;;;5063887;28;19920;-68
2023/08/05 12:44:01;;;;;;;;;;;;;;;;;;5071005;28;19932;-67
2023/08/05 12:46:27;;;;;;;;;;;;;;;;;;5069377;28;20007;-67
2023/08/05 12:48:53;;;;;;;;;;;;;;;;;;5071912;28;19967;-67
2023/08/05 12:51:19;;;;;;;;;;;;;;;;;;5069181;28;19925;-67
2023/08/05 12:53:45;;;;;;;;;;;;;;;;;;5071479;28;19928;-67
2023/08/05 12:56:11;;;;;;;;;;;;;;;;;;5069369;28;19924;-67
2023/08/05 12:58:37;;;;;;;;;;;;;;;;;;5071766;28;20366;-67
2023/08/05 13:01:03;;;;;;;;;;;;;;;;;;5052847;28;19931;-68
2023/08/05 13:03:29;;;;;;;;;;;;;;;;;;5070973;28;19927;-67
2023/08/05 13:05:54;;;;;;;;;;;;;;;;;;5051065;28;21946;-68
2023/08/05 13:08:20;;;;;;;;;;;;;;;;;;5034415;28;20004;-68
2023/08/05 13:10:47;;;;;;;;;;;;;;;;;;5069800;28;19947;-67
2023/08/05 13:13:13;;;;;;;;;;;;;;;;;;5070013;28;19929;-67
2023/08/05 13:15:39;;;;;;;;;;;;;;;;;;5069060;28;19927;-67
2023/08/05 13:18:04;;;;;;;;;;;;;;;;;;5070020;28;19920;-67
2023/08/05 13:20:30;;;;;;;;;;;;;;;;;;5070736;28;20389;-68
2023/08/05 13:22:56;;;;;;;;;;;;;;;;;;5068133;28;19924;-67
2023/08/05 13:25:22;;;;;;;;;;;;;;;;;;5067289;28;19940;-67
2023/08/05 13:27:49;;;;;;;;;;;;;;;;;;5069372;28;19944;-67
2023/08/05 13:30:15;;;;;;;;;;;;;;;;;;5068878;28;19928;-67
2023/08/05 13:32:41;;;;;;;;;;;;;;;;;;5069545;28;19928;-67
2023/08/05 13:35:07;;;;;;;;;;;;;;;;;;5068507;28;19924;-67
2023/08/05 13:37:33;;;;;;;;;;;;;;;;;;5066851;28;19924;-67
2023/08/05 13:39:58;;;;;;;;;;;;;;;;;;5069754;28;20038;-67
2023/08/05 13:42:24;;;;;;;;;;;;;;;;;;5069992;28;19920;-67
2023/08/05 13:44:50;;;;;;;;;;;;;;;;;;5066898;28;19931;-67
2023/08/05 13:47:16;;;;;;;;;;;;;;;;;;5070562;28;19920;-68
2023/08/05 13:49:42;;;;;;;;;;;;;;;;;;5050313;28;19987;-68
2023/08/05 13:52:08;;;;;;;;;;;;;;;;;;5071035;28;19929;-68
2023/08/05 13:54:34;;;;;;;;;;;;;;;;;;5070334;28;19929;-68
2023/08/05 13:57:00;;;;;;;;;;;;;;;;;;5071119;28;19963;-68
2023/08/05 13:59:26;;;;;;;;;;;;;;;;;;5048233;28;20355;-68
2023/08/05 14:01:51;;;;;;;;;;;;;;;;;;5071706;28;19926;-69
2023/08/05 14:04:17;;;;;;;;;;;;;;;;;;5070962;28;19921;-68
2023/08/05 14:06:43;;;;;;;;;;;;;;;;;;5072448;28;19920;-68
2023/08/05 14:09:09;;;;;;;;;;;;;;;;;;5073182;28;19924;-68
2023/08/05 14:11:35;;;;;;;;;;;;;;;;;;5070389;28;19929;-67
2023/08/05 14:14:01;;;;;;;;;;;;;;;;;;5073978;28;19920;-68
2023/08/05 14:16:27;;;;;;;;;;;;;;;;;;5070886;28;20017;-68
2023/08/05 14:18:53;;;;;;;;;;;;;;;;;;5070895;28;19966;-67
2023/08/05 14:21:19;;;;;;;;;;;;;;;;;;5071022;28;19927;-68
2023/08/05 14:23:45;;;;;;;;;;;;;;;;;;5073769;28;19921;-68
2023/08/05 14:26:11;;;;;;;;;;;;;;;;;;5070264;28;19928;-67
2023/08/05 14:28:37;;;;;;;;;;;;;;;;;;5073134;28;20447;-67
2023/08/05 14:31:03;;;;;;;;;;;;;;;;;;5071023;28;19925;-68
2023/08/05 14:33:29;;;;;;;;;;;;;;;;;;5055456;28;19921;-67
2023/08/05 14:35:55;;;;;;;;;;;;;;;;;;5073597;28;19928;-67
2023/08/05 14:38:21;;;;;;;;;;;;;;;;;;5066225;28;19929;-68
2023/08/05 14:40:47;;;;;;;;;;;;;;;;;;5067508;28;20038;-67
2023/08/05 14:43:13;;;;;;;;;;;;;;;;;;5051936;28;19960;-68
2023/08/05 14:45:42;;;;;;;;;;;;;;;;;;5049510;28;19977;-67
2023/08/05 14:48:08;;;;;;;;;;;;;;;;;;5068116;28;20011;-67
2023/08/05 14:50:34;;;;;;;;;;;;;;;;;;5052475;28;19925;-68
2023/08/05 14:53:00;;;;;;;;;;;;;;;;;;5064326;28;19944;-67
2023/08/05 14:55:26;;;;;;;;;;;;;;;;;;5069558;28;19928;-66
2023/08/05 14:57:53;;;;;;;;;;;;;;;;;;5071828;28;20011;-65
2023/08/05 15:00:19;;;;;;;;;;;;;;;;;;5070305;28;19935;-65
2023/08/05 15:02:45;;;;;;;;;;;;;;;;;;5069913;28;19920;-64
2023/08/05 15:05:11;;;;;;;;;;;;;;;;;;5064951;28;19928;-65
2023/08/05 15:07:37;;;;;;;;;;;;;;;;;;5060123;28;19925;-65
2023/08/05 15:10:03;;;;;;;;;;;;;;;;;;5064551;28;20357;-64
2023/08/05 15:12:29;;;;;;;;;;;;;;;;;;5071979;28;20506;-65
2023/08/05 15:14:55;;;;;;;;;;;;;;;;;;5046519;28;19920;-64
2023/08/05 15:17:21;;;;;;;;;;;;;;;;;;5053046;28;20308;-64
2023/08/05 15:19:47;;;;;;;;;;;;;;;;;;5067483;28;19920;-65
2023/08/05 15:22:13;;;;;;;;;;;;;;;;;;5066138;28;19925;-65
2023/08/05 15:24:39;;;;;;;;;;;;;;;;;;5067800;28;21507;-65
2023/08/05 15:27:05;;;;;;;;;;;;;;;;;;5048634;28;20300;-64
2023/08/05 15:29:30;;;;;;;;;;;;;;;;;;5048666;28;19916;-64
2023/08/05 15:31:57;;;;;;;;;;;;;;;;;;5070386;28;19935;-66
2023/08/05 15:34:22;;;;;;;;;;;;;;;;;;5068120;28;19935;-64
2023/08/05 15:36:48;;;;;;;;;;;;;;;;;;5069169;28;19924;-65
2023/08/05 15:39:14;;;;;;;;;;;;;;;;;;5063320;28;19921;-65
2023/08/05 15:41:40;;;;;;;;;;;;;;;;;;5053016;28;19920;-65
2023/08/05 15:44:06;;;;;;;;;;;;;;;;;;5064421;28;19927;-65
2023/08/05 15:46:32;;;;;;;;;;;;;;;;;;5066376;28;20386;-64
2023/08/05 15:48:58;;;;;;;;;;;;;;;;;;5061432;28;19982;-64
2023/08/05 15:51:24;;;;;;;;;;;;;;;;;;5063229;28;19928;-65
2023/08/05 15:53:50;;;;;;;;;;;;;;;;;;5037132;28;20366;-65
2023/08/05 15:56:16;;;;;;;;;;;;;;;;;;5046387;28;19931;-65
2023/08/05 15:58:42;;;;;;;;;;;;;;;;;;5045354;28;19966;-65
2023/08/05 16:01:08;;;;;;;;;;;;;;;;;;5061569;28;19966;-65
2023/08/05 16:03:35;;;;;;;;;;;;;;;;;;5068541;28;19925;-65
2023/08/05 16:06:01;;;;;;;;;;;;;;;;;;5066199;28;19921;-65
2023/08/05 16:08:27;;;;;;;;;;;;;;;;;;5071303;28;19936;-65
2023/08/05 16:10:53;;;;;;;;;;;;;;;;;;5062988;28;19933;-64
2023/08/05 16:13:19;;;;;;;;;;;;;;;;;;5062032;28;20408;-64
2023/08/05 16:15:45;;;;;;;;;;;;;;;;;;5071228;28;19921;-64
2023/08/05 16:18:10;;;;;;;;;;;;;;;;;;5067754;28;19920;-65
2023/08/05 16:20:36;;;;;;;;;;;;;;;;;;5064585;28;19971;-65
2023/08/05 16:23:03;;;;;;;;;;;;;;;;;;5067130;28;19930;-65
2023/08/05 16:25:29;;;;;;;;;;;;;;;;;;5066576;28;19927;-65
2023/08/05 16:27:55;;;;;;;;;;;;;;;;;;5063212;28;20317;-65
2023/08/05 16:30:20;;;;;;;;;;;;;;;;;;5066858;28;19978;-64
2023/08/05 16:32:46;;;;;;;;;;;;;;;;;;5054038;28;19924;-64
2023/08/05 16:35:12;;;;;;;;;;;;;;;;;;5072185;28;19931;-64
2023/08/05 16:37:38;;;;;;;;;;;;;;;;;;5072090;28;19928;-64